createdAt,value
2022-11-21T00:03:26.884Z,26.65
2022-11-21T00:08:27.648Z,25.85
2022-11-21T00:13:29.762Z,26.95
2022-11-21T00:18:30.560Z,27.48
2022-11-21T00:23:31.491Z,25.67
2022-11-21T00:28:33.709Z,26.08
2022-11-21T00:33:36.022Z,28.17
2022-11-21T00:38:37.260Z,28.80
2022-11-21T00:43:39.422Z,26.70
2022-11-21T00:48:40.252Z,26.45
2022-11-21T00:53:41.148Z,25.45
2022-11-21T00:58:43.260Z,26.42
2022-11-21T01:03:46.163Z,26.60
2022-11-21T01:08:47.003Z,27.00
2022-11-21T01:13:50.374Z,27.55
2022-11-21T01:18:51.732Z,25.15
2022-11-21T01:23:53.036Z,25.08
2022-11-21T01:28:55.488Z,25.05
2022-11-21T01:33:58.824Z,23.80
2022-11-21T01:39:01.634Z,24.00
2022-11-21T01:44:05.482Z,24.15
2022-11-21T01:49:09.249Z,22.52
2022-11-21T01:54:14.767Z,22.95
2022-11-21T01:59:22.677Z,22.52
2022-11-21T02:04:29.494Z,20.35
2022-11-21T02:09:32.772Z,22.02
2022-11-21T02:14:36.234Z,22.38
2022-11-21T02:19:44.811Z,21.98
2022-11-21T02:24:50.411Z,21.70
2022-11-21T02:29:52.555Z,22.17
2022-11-21T02:34:53.325Z,20.65
2022-11-21T02:39:54.841Z,20.58
2022-11-21T02:45:01.671Z,22.20
2022-11-21T02:50:11.436Z,20.67
2022-11-21T02:55:13.547Z,19.05
2022-11-21T03:00:17.005Z,19.73
2022-11-21T03:05:19.930Z,20.98
2022-11-21T03:10:21.028Z,21.40
2022-11-21T03:15:23.163Z,20.55
2022-11-21T03:20:24.088Z,18.08
2022-11-21T03:25:25.164Z,19.63
2022-11-21T03:30:27.738Z,19.33
2022-11-21T03:35:28.518Z,18.30
2022-11-21T03:40:29.319Z,17.58
2022-11-21T03:45:31.402Z,16.90
2022-11-21T03:50:32.476Z,15.88
2022-11-21T03:55:33.286Z,16.70
2022-11-21T04:00:35.408Z,15.88
2022-11-21T04:05:36.163Z,14.40
2022-11-21T04:10:37.027Z,15.65
2022-11-21T04:15:39.284Z,15.57
2022-11-21T04:20:41.073Z,14.95
2022-11-21T04:25:42.142Z,13.65
2022-11-21T04:30:44.388Z,12.55
2022-11-21T04:35:46.365Z,12.57
2022-11-21T04:40:47.163Z,12.98
2022-11-21T04:45:49.402Z,12.45
2022-11-21T04:50:50.197Z,10.73
2022-11-21T04:55:50.954Z,11.85
2022-11-21T05:00:53.125Z,11.25
2022-11-21T05:05:55.005Z,12.55
2022-11-21T05:11:18.692Z,12.90
2022-11-21T05:16:20.917Z,13.75
2022-11-21T05:21:21.673Z,13.15
2022-11-21T05:26:22.493Z,13.48
2022-11-21T05:31:24.598Z,12.70
2022-11-21T05:36:25.389Z,12.23
2022-11-21T05:41:26.178Z,12.70
2022-11-21T05:46:28.533Z,13.38
2022-11-21T05:51:29.312Z,13.55
2022-11-21T05:56:30.246Z,14.00
2022-11-21T06:01:50.014Z,14.38
2022-11-21T06:06:50.767Z,14.23
2022-11-21T06:11:51.592Z,14.55
2022-11-21T06:16:53.714Z,13.82
2022-11-21T06:21:54.506Z,15.32
2022-11-21T06:26:55.286Z,14.55
2022-11-21T06:31:57.549Z,15.27
2022-11-21T06:36:58.326Z,17.65
2022-11-21T06:41:59.063Z,15.63
2022-11-21T06:47:01.176Z,15.18
2022-11-21T06:52:01.907Z,14.68
2022-11-21T06:57:02.635Z,14.57
2022-11-21T07:02:04.802Z,14.02
2022-11-21T07:07:05.568Z,13.18
2022-11-21T07:12:24.188Z,14.90
2022-11-21T07:17:26.359Z,13.98
2022-11-21T07:22:27.135Z,14.30
2022-11-21T07:27:28.041Z,15.07
2022-11-21T07:32:30.147Z,15.00
2022-11-21T07:37:31.096Z,15.85
2022-11-21T07:42:33.437Z,17.90
2022-11-21T07:47:35.628Z,16.00
2022-11-21T07:52:36.747Z,19.23
2022-11-21T07:57:37.484Z,17.10
2022-11-21T08:02:39.588Z,18.95
2022-11-21T08:07:40.385Z,20.60
2022-11-21T08:12:41.310Z,19.60
2022-11-21T08:17:45.135Z,20.00
2022-11-21T08:22:45.940Z,18.38
2022-11-21T08:27:46.751Z,16.85
2022-11-21T08:32:49.018Z,17.55
2022-11-21T08:37:49.808Z,17.13
2022-11-21T08:42:57.577Z,17.60
2022-11-21T08:47:59.852Z,18.27
2022-11-21T08:53:02.360Z,18.55
2022-11-21T08:58:03.193Z,19.30
2022-11-21T09:03:07.417Z,18.52
2022-11-21T09:08:08.184Z,19.10
2022-11-21T09:13:08.941Z,16.70
2022-11-21T09:18:12.278Z,17.90
2022-11-21T09:23:15.034Z,18.48
2022-11-21T09:28:16.457Z,19.48
2022-11-21T09:33:18.612Z,18.48
2022-11-21T09:38:23.778Z,19.45
2022-11-21T09:43:39.506Z,20.33
2022-11-21T09:48:49.903Z,18.92
2022-11-21T09:53:58.491Z,20.02
2022-11-21T09:59:13.241Z,20.30
2022-11-21T10:04:15.509Z,21.95
2022-11-21T10:09:24.681Z,22.30
2022-11-21T10:14:33.250Z,21.38
2022-11-21T10:19:59.709Z,22.85
2022-11-21T10:25:07.598Z,20.63
2022-11-21T10:30:16.336Z,22.30
2022-11-21T10:35:22.722Z,20.75
2022-11-21T10:40:37.082Z,20.30
2022-11-21T10:45:37.872Z,18.75
2022-11-21T10:50:54.727Z,19.27
2022-11-21T10:56:03.192Z,19.95
2022-11-21T11:01:04.390Z,18.90
2022-11-21T11:06:06.634Z,19.55
2022-11-21T11:11:09.173Z,20.80
2022-11-21T11:16:17.522Z,19.08
2022-11-21T11:21:21.946Z,18.35
2022-11-21T11:26:26.398Z,18.88
2022-11-21T11:31:27.201Z,18.98
2022-11-21T11:36:38.133Z,18.13
2022-11-21T11:42:16.989Z,17.80
2022-11-21T11:47:32.563Z,17.35
2022-11-21T11:52:40.649Z,19.00
2022-11-21T11:57:43.979Z,18.25
2022-11-21T12:02:53.121Z,17.30
2022-11-21T12:08:40.236Z,16.35
2022-11-21T12:13:29.860Z,16.65
2022-11-21T12:18:37.436Z,17.77
2022-11-21T12:23:47.252Z,15.70
2022-11-21T12:29:03.520Z,15.45
2022-11-21T12:34:14.658Z,17.13
2022-11-21T12:39:48.144Z,16.63
2022-11-21T12:45:03.870Z,16.10
2022-11-21T12:50:34.623Z,16.80
2022-11-21T12:55:40.279Z,17.33
2022-11-21T13:00:53.866Z,16.88
2022-11-21T13:05:58.265Z,16.90
2022-11-21T13:11:25.865Z,17.20
2022-11-21T13:16:37.700Z,15.95
2022-11-21T13:21:42.781Z,17.38
2022-11-21T13:26:54.996Z,18.35
2022-11-21T13:31:55.830Z,18.15
2022-11-21T13:36:56.941Z,17.42
2022-11-21T13:42:27.555Z,19.48
2022-11-21T13:48:02.126Z,16.65
2022-11-21T13:53:13.400Z,20.70
2022-11-21T13:58:40.142Z,18.65
2022-11-21T14:03:56.189Z,19.33
2022-11-21T14:09:20.949Z,18.38
2022-11-21T14:14:36.225Z,16.45
2022-11-21T14:19:37.414Z,17.58
2022-11-21T14:24:41.033Z,16.85
2022-11-21T14:29:43.278Z,16.23
2022-11-21T14:34:44.060Z,18.70
2022-11-21T14:39:49.006Z,20.10
2022-11-21T14:45:09.558Z,20.88
2022-11-21T14:50:24.189Z,21.05
2022-11-21T14:55:30.693Z,22.00
2022-11-21T15:06:05.120Z,21.70
2022-11-21T15:11:09.536Z,22.80
2022-11-21T15:16:12.238Z,22.45
2022-11-21T15:21:17.047Z,21.77
2022-11-21T15:26:33.328Z,22.38
2022-11-21T15:31:35.722Z,23.08
2022-11-21T15:36:36.560Z,23.63
2022-11-21T15:41:37.919Z,22.05
2022-11-21T15:46:42.611Z,20.55
2022-11-21T15:52:06.046Z,20.38
2022-11-21T15:57:06.855Z,21.98
2022-11-21T16:02:13.181Z,21.75
2022-11-21T16:07:14.076Z,22.48
2022-11-21T16:12:15.400Z,20.13
2022-11-21T16:17:17.760Z,20.77
2022-11-21T16:22:18.551Z,21.00
2022-11-21T16:27:19.687Z,19.88
2022-11-21T16:32:21.828Z,21.00
2022-11-21T16:37:22.693Z,20.05
2022-11-21T16:42:23.858Z,20.45
2022-11-21T16:47:26.053Z,21.35
2022-11-21T16:52:26.874Z,19.27
2022-11-21T16:57:27.666Z,20.38
2022-11-21T17:02:30.108Z,20.25
2022-11-21T17:07:32.062Z,19.08
2022-11-21T17:12:40.127Z,20.75
2022-11-21T17:17:43.578Z,19.20
2022-11-21T17:22:44.400Z,16.75
2022-11-21T17:27:45.224Z,18.50
2022-11-21T17:32:47.488Z,18.13
2022-11-21T17:37:48.284Z,16.73
2022-11-21T17:42:49.656Z,18.60
2022-11-21T17:47:51.936Z,18.08
2022-11-21T17:52:52.783Z,17.25
2022-11-21T17:57:53.786Z,17.10
2022-11-21T18:02:57.486Z,16.80
2022-11-21T18:07:58.701Z,14.45
2022-11-21T18:12:59.487Z,15.85
2022-11-21T18:18:01.644Z,15.00
2022-11-21T18:23:02.530Z,15.88
2022-11-21T18:28:03.334Z,14.70
2022-11-21T18:33:05.515Z,15.45
2022-11-21T18:38:06.306Z,16.00
2022-11-21T18:43:07.731Z,13.93
2022-11-21T18:48:09.893Z,15.65
2022-11-21T18:53:10.783Z,14.77
2022-11-21T18:58:11.584Z,15.00
2022-11-21T19:03:14.027Z,13.98
2022-11-21T19:08:14.850Z,13.75
2022-11-21T19:13:15.900Z,12.80
2022-11-21T19:18:18.088Z,13.40
2022-11-21T19:23:18.871Z,13.88
2022-11-21T19:28:19.639Z,12.73
2022-11-21T19:33:21.949Z,13.75
2022-11-21T19:38:22.873Z,12.55
2022-11-21T19:43:23.852Z,13.63
2022-11-21T19:48:26.047Z,13.38
2022-11-21T19:53:28.398Z,13.48
2022-11-21T19:58:29.363Z,14.45
2022-11-21T20:03:31.686Z,14.88
2022-11-21T20:08:32.533Z,14.73
2022-11-21T20:13:33.708Z,15.05
2022-11-21T20:18:36.099Z,16.10
2022-11-21T20:23:37.106Z,14.77
2022-11-21T20:28:38.314Z,15.10
2022-11-21T20:33:42.035Z,14.43
2022-11-21T20:38:43.275Z,13.65
2022-11-21T20:44:26.741Z,13.38
2022-11-21T20:49:07.294Z,13.45
2022-11-21T20:54:08.268Z,14.00
2022-11-21T20:59:09.205Z,13.70
2022-11-21T21:04:12.117Z,13.68
2022-11-21T21:09:12.922Z,13.00
2022-11-21T21:14:13.772Z,14.23
2022-11-21T21:19:16.411Z,13.15
2022-11-21T21:24:17.403Z,13.10
2022-11-21T21:29:21.088Z,13.40
2022-11-21T21:34:24.017Z,12.05
2022-11-21T21:39:27.205Z,13.40
2022-11-21T21:44:33.509Z,12.88
2022-11-21T21:49:36.142Z,13.05
2022-11-21T21:54:36.915Z,12.82
2022-11-21T21:59:38.089Z,12.13
2022-11-21T22:04:40.187Z,12.68
2022-11-21T22:09:40.947Z,12.52
2022-11-21T22:14:41.762Z,12.50
2022-11-21T22:19:43.890Z,12.25
2022-11-21T22:24:44.828Z,12.70
2022-11-21T22:29:45.814Z,11.95
2022-11-21T22:34:47.909Z,12.10
2022-11-21T22:39:48.723Z,12.13
2022-11-21T22:44:49.497Z,12.68
2022-11-21T22:49:51.651Z,12.82
2022-11-21T22:54:52.459Z,11.65
2022-11-21T22:59:53.268Z,12.35
2022-11-21T23:04:55.398Z,11.07
2022-11-21T23:09:56.234Z,11.65
2022-11-21T23:14:56.968Z,11.55
2022-11-21T23:19:59.143Z,11.93
2022-11-21T23:24:59.926Z,11.57
2022-11-21T23:30:00.709Z,11.90
2022-11-21T23:35:02.803Z,11.55
2022-11-21T23:40:03.641Z,11.05
2022-11-21T23:45:04.969Z,11.65
2022-11-21T23:50:08.144Z,11.95
2022-11-21T23:55:10.279Z,11.10
